Time;durP1;ratioP1;P1;durP2;ratioP2;P2;SDS_P1;SDS_P2;PMS_P1;PMS_P2;Temp;Humidity;BMP_temperature;BMP_pressure;BME280_temperature;BME280_humidity;BME280_pressure;Samples;Min_cycle;Max_cycle;Signal;HPM_P1;HPM_P2
2022/07/14 00:01:43;;;;;;;11.63;5.22;;;;;;;16.02;95.74;68554.63;5070311;28;20407;-78
2022/07/14 00:04:08;;;;;;;17.73;5.47;;;;;;;15.92;96.35;68545.91;5088014;28;20036;-78
2022/07/14 00:06:34;;;;;;;16.85;5.10;;;;;;;15.89;96.60;68539.81;5073286;28;20114;-78
2022/07/14 00:09:00;;;;;;;14.88;5.10;;;;;;;15.90;96.60;68543.63;5068856;28;20044;-80
2022/07/14 00:11:25;;;;;;;15.52;5.05;;;;;;;15.80;97.09;68529.53;5071421;28;20037;-78
2022/07/14 00:13:51;;;;;;;15.70;4.93;;;;;;;15.90;96.30;68540.94;5075603;28;20041;-78
2022/07/14 00:16:17;;;;;;;11.38;3.95;;;;;;;15.84;96.30;68533.53;5087149;28;20511;-79
2022/07/14 00:18:45;;;;;;;16.90;4.95;;;;;;;15.86;95.80;68539.06;5094231;28;20046;-80
2022/07/14 00:21:15;;;;;;;17.98;4.63;;;;;;;15.81;96.33;68530.13;5082487;28;20063;-78
2022/07/14 00:23:41;;;;;;;12.50;4.80;;;;;;;;;;5079143;28;20488;-78
2022/07/14 00:26:06;;;;;;;14.45;4.93;;;;;;;15.77;96.33;68526.69;5075485;28;20048;-78
2022/07/14 00:28:32;;;;;;;15.45;5.18;;;;;;;;;;5057353;28;20037;-77
2022/07/14 00:31:03;;;;;;;13.77;4.57;;;;;;;15.72;96.11;68523.69;5081521;28;20047;-79
2022/07/14 00:33:29;;;;;;;17.02;4.43;;;;;;;;;;5069799;28;20123;-78
2022/07/14 00:35:54;;;;;;;15.43;4.88;;;;;;;15.72;95.75;68521.00;5060295;28;20131;-79
2022/07/14 00:38:19;;;;;;;15.52;4.90;;;;;;;;;;5082312;28;20382;-79
2022/07/14 00:40:44;;;;;;;21.00;5.93;;;;;;;;;;5061970;28;20094;-78
2022/07/14 00:43:10;;;;;;;15.33;4.60;;;;;;;;;;5068037;28;20356;-78
2022/07/14 00:45:35;;;;;;;13.88;4.30;;;;;;;15.72;94.79;68523.13;5068568;28;20332;-78
2022/07/14 00:48:00;;;;;;;13.52;4.80;;;;;;;15.68;94.98;68518.53;5078239;28;20045;-78
2022/07/14 00:50:29;;;;;;;13.38;4.00;;;;;;;15.64;95.04;68511.28;5072526;28;20041;-78
2022/07/14 00:52:54;;;;;;;16.30;4.60;;;;;;;15.62;94.88;68514.38;5084155;28;20091;-78
2022/07/14 00:55:19;;;;;;;14.05;4.18;;;;;;;15.60;95.15;68506.75;5073096;28;20035;-78
2022/07/14 00:57:46;;;;;;;12.02;4.22;;;;;;;15.55;95.24;68501.59;5068034;28;20063;-78
2022/07/14 01:00:14;;;;;;;16.40;4.95;;;;;;;15.53;95.50;68502.56;5076427;28;20036;-78
2022/07/14 01:02:40;;;;;;;15.68;4.47;;;;;;;15.48;95.64;68496.88;5054997;28;20052;-78
2022/07/14 01:05:06;;;;;;;12.05;4.60;;;;;;;15.46;95.71;68494.59;5078639;28;20052;-79
2022/07/14 01:07:32;;;;;;;18.40;5.07;;;;;;;15.40;96.00;68485.09;5072814;28;20036;-78
2022/07/14 01:09:57;;;;;;;14.07;4.57;;;;;;;15.44;96.21;68495.00;5065616;28;20056;-78
2022/07/14 01:12:23;;;;;;;16.77;5.03;;;;;;;15.34;96.42;68480.94;5057440;28;20071;-79
2022/07/14 01:14:49;;;;;;;12.90;5.07;;;;;;;15.26;97.19;68474.50;5067563;28;20036;-78
2022/07/14 01:17:14;;;;;;;17.83;5.20;;;;;;;15.21;97.07;68464.00;5078411;28;20067;-78
2022/07/14 01:19:40;;;;;;;17.20;4.80;;;;;;;15.22;97.56;68464.56;5082494;28;20058;-78
2022/07/14 01:22:06;;;;;;;12.77;4.60;;;;;;;15.28;97.12;68474.66;5083062;28;20060;-78
2022/07/14 01:24:32;;;;;;;19.00;5.15;;;;;;;15.16;97.34;68458.31;5067218;28;20041;-78
2022/07/14 01:26:58;;;;;;;17.65;5.05;;;;;;;15.12;97.63;68454.31;5065530;28;20044;-78
2022/07/14 01:29:23;;;;;;;19.63;5.43;;;;;;;;;;5071014;28;20066;-79
2022/07/14 01:31:49;;;;;;;17.42;4.80;;;;;;;15.18;97.64;68460.59;5083629;28;20040;-80
2022/07/14 01:34:14;;;;;;;18.73;5.28;;;;;;;15.19;97.20;68461.16;5097639;28;20507;-77
2022/07/14 01:36:39;;;;;;;16.48;4.80;;;;;;;15.15;97.53;68462.53;5097625;28;20043;-80
2022/07/14 01:39:06;;;;;;;14.68;4.65;;;;;;;15.19;97.36;68461.16;5088729;28;20051;-80
2022/07/14 01:41:32;;;;;;;17.95;4.70;;;;;;;15.20;97.13;68467.66;5085390;28;20037;-80
2022/07/14 01:43:58;;;;;;;14.55;4.82;;;;;;;;;;5091586;28;20035;-79
2022/07/14 01:46:23;;;;;;;18.25;5.35;;;;;;;15.20;96.70;68462.88;5085805;28;20036;-79
2022/07/14 01:48:49;;;;;;;16.17;4.43;;;;;;;15.11;97.27;68455.88;5090458;28;20058;-79
2022/07/14 01:51:14;;;;;;;16.40;4.75;;;;;;;15.04;97.89;68445.22;5078624;28;20123;-79
2022/07/14 01:53:41;;;;;;;20.80;5.68;;;;;;;15.07;97.54;68451.31;5087036;28;20746;-80
2022/07/14 01:56:07;;;;;;;14.63;4.93;;;;;;;15.07;97.99;68451.31;5075745;28;20041;-78
2022/07/14 01:58:33;;;;;;;18.30;5.13;;;;;;;15.11;97.65;68453.19;5075348;28;20040;-77
2022/07/14 02:03:44;;;;;;;13.90;4.60;;;;;;;;;;5073724;28;20039;-80
2022/07/14 02:06:10;;;;;;;17.10;4.88;;;;;;;15.07;97.50;68450.75;5082824;28;20048;-79
2022/07/14 02:08:35;;;;;;;16.98;5.45;;;;;;;;;;5093884;28;20044;-77
2022/07/14 02:13:44;;;;;;;16.42;5.47;;;;;;;;;;5090746;28;20300;-80
2022/07/14 02:16:09;;;;;;;17.25;5.25;;;;;;;;;;5083498;28;20052;-78
2022/07/14 02:18:35;;;;;;;14.57;5.10;;;;;;;14.87;98.24;68426.44;5089872;28;20050;-79
2022/07/14 02:21:00;;;;;;;17.98;5.18;;;;;;;14.88;97.77;68427.00;5090859;28;20898;-78
2022/07/14 02:23:26;;;;;;;16.20;4.85;;;;;;;14.87;97.73;68420.50;5086197;28;20048;-80
2022/07/14 02:25:51;;;;;;;14.63;4.90;;;;;;;14.86;97.58;68427.97;5075293;28;20767;-80
2022/07/14 02:28:17;;;;;;;14.68;4.90;;;;;;;14.83;97.18;68427.22;5075231;28;20051;-77
2022/07/14 02:30:42;;;;;;;13.13;4.18;;;;;;;14.78;97.35;68416.16;5073411;28;20036;-79
2022/07/14 02:33:08;;;;;;;18.10;4.85;;;;;;;14.75;98.04;68412.19;5060771;28;20052;-80
2022/07/14 02:35:34;;;;;;;16.60;4.47;;;;;;;14.69;98.98;68411.28;5074634;28;20047;-79
2022/07/14 02:37:59;;;;;;;16.73;5.28;;;;;;;14.74;98.79;68413.75;5085280;28;20032;-78
2022/07/14 02:40:25;;;;;;;13.10;4.78;;;;;;;;;;5073433;28;20044;-79
2022/07/14 02:42:50;;;;;;;13.73;5.25;;;;;;;14.79;98.58;68419.44;5086341;28;20040;-79
2022/07/14 02:45:16;;;;;;;15.55;5.25;;;;;;;;;;5072038;28;20040;-76
2022/07/14 02:47:41;;;;;;;15.32;5.32;;;;;;;14.76;99.05;68413.31;5094846;28;20452;-78
2022/07/14 02:50:07;;;;;;;13.15;4.55;;;;;;;14.83;98.51;68424.53;5091083;28;20065;-79
2022/07/14 02:52:33;;;;;;;15.65;5.35;;;;;;;14.64;99.45;68405.59;5090904;28;20105;-79
2022/07/14 02:54:58;;;;;;;16.13;5.75;;;;;;;14.60;100.00;68395.69;5088746;28;20111;-78
2022/07/14 02:57:24;;;;;;;17.45;5.93;;;;;;;14.60;100.00;68398.34;5082158;28;20068;-79
2022/07/14 02:59:50;;;;;;;14.20;5.60;;;;;;;14.53;99.77;68382.34;5071956;28;20059;-79
2022/07/14 03:02:15;;;;;;;14.27;5.50;;;;;;;14.49;100.00;68388.50;5082026;28;20044;-80
2022/07/14 03:04:41;;;;;;;17.52;5.82;;;;;;;14.54;99.88;68392.09;5074517;28;20032;-77
2022/07/14 03:07:06;;;;;;;19.70;5.78;;;;;;;14.53;99.35;68388.28;5086078;28;20050;-78
2022/07/14 03:09:31;;;;;;;16.60;4.55;;;;;;;14.55;99.35;68390.56;5094774;28;20036;-79
2022/07/14 03:11:57;;;;;;;18.52;5.10;;;;;;;14.54;99.17;68388.84;5072723;28;20699;-77
2022/07/14 03:14:22;;;;;;;14.43;4.50;;;;;;;14.41;99.45;68374.59;5074186;28;20510;-78
2022/07/14 03:16:47;;;;;;;14.52;5.18;;;;;;;14.41;99.65;68374.59;5072880;28;20040;-79
2022/07/14 03:19:13;;;;;;;16.63;4.93;;;;;;;14.39;99.25;68372.91;5073414;28;20090;-78
2022/07/14 03:21:39;;;;;;;13.05;5.13;;;;;;;14.35;99.28;68370.44;5072180;28;20115;-78
2022/07/14 03:24:06;;;;;;;14.95;5.32;;;;;;;14.21;99.79;68355.66;5089098;22;20060;-79
2022/07/14 03:26:31;;;;;;;14.90;5.55;;;;;;;14.22;100.00;68354.13;5065862;28;20048;-79
2022/07/14 03:28:57;;;;;;;15.10;5.28;;;;;;;14.21;100.00;68352.41;5065191;28;20156;-80
2022/07/14 03:31:22;;;;;;;14.05;5.30;;;;;;;14.14;99.49;68347.69;5065460;28;20040;-78
2022/07/14 03:33:48;;;;;;;15.68;5.45;;;;;;;14.04;99.93;68333.63;5063525;28;20056;-78
2022/07/14 03:36:13;;;;;;;15.15;5.72;;;;;;;14.03;100.00;68327.13;5086484;28;20047;-79
2022/07/14 03:38:38;;;;;;;9.35;4.70;;;;;;;13.99;100.00;68328.50;5086701;28;20104;-77
2022/07/14 03:41:05;;;;;;;10.70;4.38;;;;;;;13.96;100.00;68327.19;5080881;28;20048;-79
2022/07/14 03:43:30;;;;;;;15.90;5.40;;;;;;;13.91;100.00;68321.50;5086881;28;20040;-79
2022/07/14 03:45:55;;;;;;;15.68;5.43;;;;;;;13.82;100.00;68309.16;5085055;28;20403;-78
2022/07/14 03:48:21;;;;;;;15.75;5.30;;;;;;;;;;5086510;28;20044;-78
2022/07/14 03:50:48;;;;;;;14.32;5.10;;;;;;;13.77;100.00;68303.47;5084294;28;20032;-78
2022/07/14 03:53:13;;;;;;;13.57;5.72;;;;;;;13.72;100.00;68298.34;5085611;28;20153;-78
2022/07/14 03:55:39;;;;;;;13.43;5.85;;;;;;;13.68;100.00;68293.78;5082799;28;20032;-78
2022/07/14 03:58:04;;;;;;;17.20;6.35;;;;;;;13.71;100.00;68302.56;5086143;28;20127;-79
2022/07/14 04:00:30;;;;;;;15.25;6.78;;;;;;;13.69;100.00;68300.28;5086191;28;20070;-79
2022/07/14 04:02:56;;;;;;;15.85;6.30;;;;;;;13.66;100.00;68291.50;5083554;28;20082;-78
2022/07/14 04:05:22;;;;;;;16.25;6.40;;;;;;;13.67;100.00;68292.66;5067941;28;20071;-79
2022/07/14 04:07:48;;;;;;;16.27;5.95;;;;;;;13.64;100.00;68289.25;5083304;28;20520;-78
2022/07/14 04:10:13;;;;;;;14.40;6.47;;;;;;;13.59;100.00;68283.56;5085210;28;20123;-78
2022/07/14 04:12:38;;;;;;;17.40;5.97;;;;;;;13.53;100.00;68279.97;5083554;28;20052;-78
2022/07/14 04:15:04;;;;;;;18.67;6.10;;;;;;;13.44;100.00;68267.06;5081953;28;20079;-78
2022/07/14 04:17:30;;;;;;;13.93;5.50;;;;;;;13.46;100.00;68272.00;5084929;28;20036;-78
2022/07/14 04:19:56;;;;;;;18.70;5.45;;;;;;;13.44;100.00;68266.50;5084825;28;20056;-78
2022/07/14 04:22:21;;;;;;;12.77;5.65;;;;;;;13.46;100.00;68272.00;5087091;28;20060;-77
2022/07/14 04:24:47;;;;;;;14.25;5.40;;;;;;;13.47;100.00;68270.47;5071516;28;20036;-78
2022/07/14 04:27:12;;;;;;;16.50;6.10;;;;;;;13.46;100.00;68268.75;5070776;28;20043;-78
2022/07/14 04:29:38;;;;;;;16.00;5.68;;;;;;;13.46;100.00;68272.00;5090621;28;20572;-78
2022/07/14 04:32:04;;;;;;;14.23;5.28;;;;;;;;;;5083848;28;20028;-78
2022/07/14 04:34:30;;;;;;;13.18;5.55;;;;;;;13.46;100.00;68269.34;5079202;28;20409;-78
2022/07/14 04:36:55;;;;;;;13.93;5.68;;;;;;;13.49;100.00;68275.44;5083919;28;20036;-78
2022/07/14 04:39:20;;;;;;;19.13;7.50;;;;;;;13.50;100.00;68276.00;5085224;28;20044;-78
2022/07/14 04:41:46;;;;;;;17.10;6.45;;;;;;;;;;5090051;28;20060;-77
2022/07/14 04:44:11;;;;;;;19.70;8.40;;;;;;;13.57;100.00;68281.28;5092831;28;20062;-78
2022/07/14 04:46:36;;;;;;;18.45;8.02;;;;;;;13.67;100.00;68292.09;5092311;28;20042;-78
2022/07/14 04:52:04;;;;;;;19.10;7.72;;;;;;;13.69;100.00;68294.34;5091677;28;20047;-77
2022/07/14 04:54:34;;;;;;;18.67;7.13;;;;;;;13.63;100.00;68290.22;5075568;28;20694;-78
2022/07/14 04:57:01;;;;;;;17.13;7.65;;;;;;;13.66;100.00;68291.50;5091452;28;20048;-78
2022/07/14 04:59:27;;;;;;;17.50;6.93;;;;;;;;;;5092444;28;20040;-77
2022/07/14 05:01:53;;;;;;;16.27;7.85;;;;;;;13.96;100.00;68327.19;5092757;28;20055;-78
2022/07/14 05:04:19;;;;;;;17.85;6.93;;;;;;;13.91;100.00;68321.50;5093873;28;20041;-78
2022/07/14 05:06:46;;;;;;;17.65;7.85;;;;;;;13.92;100.00;68319.97;5092442;28;20072;-77
2022/07/14 05:09:14;;;;;;;17.17;7.07;;;;;;;13.91;100.00;68324.19;5090986;28;20047;-77
2022/07/14 05:11:40;;;;;;;21.70;8.05;;;;;;;;;;5091415;28;20040;-78
2022/07/14 05:14:07;;;;;;;19.10;7.95;;;;;;;;;;5091332;28;20055;-78
2022/07/14 05:16:32;;;;;;;16.45;6.43;;;;;;;14.12;100.00;68342.16;5092873;28;20097;-78
2022/07/14 05:18:57;;;;;;;16.10;6.63;;;;;;;14.17;100.00;68351.09;5092063;28;20119;-77
2022/07/14 05:21:24;;;;;;;17.73;6.78;;;;;;;14.20;100.00;68351.25;5090516;28;20123;-77
2022/07/14 05:23:49;;;;;;;15.98;6.93;;;;;;;14.27;100.00;68358.66;5093588;28;20055;-77
2022/07/14 05:26:17;;;;;;;16.88;6.90;;;;;;;14.31;100.00;68363.22;5072356;28;20123;-78
2022/07/14 05:28:43;;;;;;;14.45;7.20;;;;;;;14.37;100.00;68365.25;5093725;28;20089;-77
2022/07/14 05:31:08;;;;;;;14.05;6.65;;;;;;;14.40;100.00;68376.13;5090974;28;20039;-77
2022/07/14 05:33:34;;;;;;;15.88;6.85;;;;;;;;;;5093480;28;20040;-78
2022/07/14 05:35:59;;;;;;;16.20;6.63;;;;;;;14.56;100.00;68385.78;5091925;28;20396;-77
2022/07/14 05:38:25;;;;;;;13.90;6.20;;;;;;;14.63;100.00;68401.78;5076770;28;20047;-78
2022/07/14 05:40:51;;;;;;;19.13;6.95;;;;;;;14.78;100.00;68420.97;5092763;28;20051;-79
2022/07/14 05:43:19;;;;;;;15.55;6.30;;;;;;;14.70;100.00;68409.16;5094234;28;20404;-78
2022/07/14 05:45:44;;;;;;;14.55;6.07;;;;;;;;;;5094638;28;20048;-79
2022/07/14 05:48:10;;;;;;;17.63;6.60;;;;;;;14.84;99.77;68425.13;5095822;28;20044;-78
2022/07/14 05:50:35;;;;;;;15.52;5.85;;;;;;;14.83;100.00;68421.31;5092830;28;20043;-78
2022/07/14 05:53:00;;;;;;;11.82;5.28;;;;;;;;;;5094713;28;20054;-78
2022/07/14 05:55:26;;;;;;;16.80;6.50;;;;;;;14.96;99.15;68435.53;5091351;28;20044;-77
2022/07/14 05:57:51;;;;;;;11.77;5.35;;;;;;;15.07;97.59;68450.75;5094513;28;20282;-78
2022/07/14 06:00:17;;;;;;;12.82;5.50;;;;;;;15.03;97.44;68446.75;5092869;28;20048;-77
2022/07/14 06:02:43;;;;;;;16.55;5.05;;;;;;;15.14;96.97;68456.03;5071987;28;20048;-78
2022/07/14 06:05:10;;;;;;;15.40;4.88;;;;;;;15.22;96.73;68459.78;5090820;28;20761;-78
2022/07/14 06:07:35;;;;;;;10.93;3.90;;;;;;;15.34;95.13;68478.81;5088872;28;20738;-77
2022/07/14 06:10:01;;;;;;;15.30;5.28;;;;;;;;;;5074661;28;20136;-79
2022/07/14 06:12:27;;;;;;;13.35;4.72;;;;;;;15.40;94.74;68479.72;5089977;28;20107;-79
2022/07/14 06:14:53;;;;;;;14.15;4.93;;;;;;;;;;5091822;28;20265;-78
2022/07/14 06:17:18;;;;;;;12.05;4.10;;;;;;;;;;5094232;28;20119;-78
2022/07/14 06:19:43;;;;;;;10.97;4.33;;;;;;;15.64;92.96;68511.28;5092351;28;20151;-79
2022/07/14 06:22:11;;;;;;;12.15;3.03;;;;;;;;;;5095231;28;20266;-77
2022/07/14 06:24:38;;;;;;;11.15;3.67;;;;;;;15.79;90.55;68528.41;5093970;28;20040;-77
2022/07/14 06:27:03;;;;;;;13.38;4.13;;;;;;;15.90;89.76;68540.94;5093510;28;20046;-78
2022/07/14 06:29:29;;;;;;;13.60;4.00;;;;;;;15.88;87.91;68532.72;5094598;28;20504;-78
2022/07/14 06:31:55;;;;;;;9.00;3.65;;;;;;;15.85;88.87;68535.22;5091458;28;20097;-79
2022/07/14 06:34:22;;;;;;;13.52;3.80;;;;;;;15.81;88.40;68530.69;5090645;28;20036;-79
2022/07/14 06:36:47;;;;;;;16.30;4.15;;;;;;;;;;5091228;28;20492;-78
2022/07/14 06:39:14;;;;;;;10.43;3.37;;;;;;;16.09;86.67;68561.47;5087019;28;20040;-78
2022/07/14 06:41:40;;;;;;;11.40;3.45;;;;;;;16.14;85.47;68567.16;5086949;28;20332;-78
2022/07/14 06:44:05;;;;;;;13.07;3.60;;;;;;;16.20;85.17;68574.00;5086292;28;20048;-78
2022/07/14 06:46:32;;;;;;;12.55;4.00;;;;;;;16.18;84.16;68571.72;5088731;28;20160;-78
2022/07/14 06:48:57;;;;;;;10.07;3.33;;;;;;;;;;5087894;28;20217;-78
2022/07/14 06:51:22;;;;;;;8.70;2.80;;;;;;;16.25;84.62;68579.69;5089402;28;20097;-78
2022/07/14 06:53:48;;;;;;;10.32;3.40;;;;;;;;;;5104989;28;20431;-78
2022/07/14 06:56:13;;;;;;;9.05;3.00;;;;;;;16.56;83.90;68613.91;5089086;28;20056;-78
2022/07/14 06:58:38;;;;;;;14.23;3.60;;;;;;;;;;5069124;28;20032;-78
2022/07/14 07:01:04;;;;;;;11.17;3.00;;;;;;;16.65;82.42;68626.84;5086631;28;20097;-78
2022/07/14 07:03:29;;;;;;;11.73;2.65;;;;;;;;;;5086171;28;20285;-78
2022/07/14 07:08:38;;;;;;;8.75;2.35;;;;;;;16.76;80.88;68638.81;5067892;28;20048;-78
2022/07/14 07:11:03;;;;;;;11.73;2.95;;;;;;;16.84;80.98;68645.84;5083165;28;20048;-78
2022/07/14 07:13:29;;;;;;;13.52;3.03;;;;;;;16.86;80.27;68648.13;5088460;28;20127;-78
2022/07/14 07:15:55;;;;;;;10.50;2.50;;;;;;;16.96;79.91;68658.41;5086864;28;20436;-78
2022/07/14 07:18:20;;;;;;;13.30;2.72;;;;;;;;;;5070556;28;20040;-78
2022/07/14 07:20:45;;;;;;;7.85;2.60;;;;;;;17.23;79.12;68689.19;5086997;28;20040;-79
2022/07/14 07:23:11;;;;;;;9.23;2.35;;;;;;;17.32;79.01;68699.47;5087665;28;20054;-78
2022/07/14 07:25:36;;;;;;;11.30;2.50;;;;;;;17.51;77.68;68715.19;5088429;28;20099;-79
2022/07/14 07:28:02;;;;;;;9.18;2.55;;;;;;;;;;5092262;28;20377;-78
2022/07/14 07:30:28;;;;;;;11.07;2.40;;;;;;;17.52;77.02;68715.75;5089496;28;20127;-78
2022/07/14 07:32:53;;;;;;;11.20;2.38;;;;;;;17.60;77.13;68724.88;5091895;28;20039;-78
2022/07/14 07:35:19;;;;;;;9.75;2.83;;;;;;;17.63;75.67;68725.59;5088003;28;20036;-78
2022/07/14 07:37:46;;;;;;;10.35;2.60;;;;;;;17.52;75.13;68721.13;5089883;28;20040;-78
2022/07/14 07:40:11;;;;;;;7.63;2.60;;;;;;;17.44;76.21;68712.59;5087973;28;20032;-78
2022/07/14 07:42:37;;;;;;;9.73;2.40;;;;;;;17.66;75.25;68737.09;5088785;28;20046;-78
2022/07/14 07:45:03;;;;;;;7.90;2.55;;;;;;;;;;5077853;28;20097;-78
2022/07/14 07:47:28;;;;;;;14.73;2.70;;;;;;;;;;5069329;28;20066;-78
2022/07/14 07:49:53;;;;;;;7.38;2.10;;;;;;;17.76;75.24;68743.16;5087563;28;20264;-78
2022/07/14 07:52:20;;;;;;;11.25;2.60;;;;;;;17.86;75.93;68753.44;5086856;28;20130;-78
2022/07/14 07:54:45;;;;;;;10.27;2.22;;;;;;;;;;5086255;28;20043;-78
2022/07/14 07:57:11;;;;;;;12.65;2.33;;;;;;;17.95;71.43;68769.09;5084295;28;20093;-78
2022/07/14 07:59:37;;;;;;;8.18;1.65;;;;;;;18.06;72.58;68775.69;5086359;28;20059;-78
2022/07/14 08:02:02;;;;;;;8.02;1.90;;;;;;;18.30;70.99;68802.50;5085573;28;20481;-78
2022/07/14 08:04:28;;;;;;;4.40;1.77;;;;;;;;;;5072993;28;20657;-78
2022/07/14 08:06:53;;;;;;;8.50;2.25;;;;;;;;;;5087864;28;20127;-78
2022/07/14 08:09:18;;;;;;;6.83;2.37;;;;;;;;;;5085380;28;20055;-78
2022/07/14 08:11:44;;;;;;;9.98;2.45;;;;;;;18.31;70.61;68800.97;5068189;28;20289;-78
2022/07/14 08:14:47;;;;;;;8.65;2.35;;;;;;;;;;5083597;28;20505;-78
2022/07/14 08:16:58;;;;;;;8.40;2.58;;;;;;;18.35;71.23;68814.19;5087044;28;20120;-78
2022/07/14 08:19:24;;;;;;;6.72;2.42;;;;;;;18.33;69.11;68811.34;5089567;28;20051;-78
2022/07/14 08:21:50;;;;;;;8.82;2.10;;;;;;;18.43;70.40;68815.22;5066484;28;20064;-78
2022/07/14 08:24:15;;;;;;;8.05;2.15;;;;;;;;;;5082734;28;20071;-78
2022/07/14 08:26:40;;;;;;;10.77;2.53;;;;;;;;;;5082105;28;20036;-78
2022/07/14 08:29:07;;;;;;;9.00;2.25;;;;;;;19.01;66.28;68887.88;5088038;28;20065;-78
2022/07/14 08:31:32;;;;;;;6.80;1.98;;;;;;;;;;5089353;28;20039;-79
2022/07/14 08:33:58;;;;;;;6.60;1.92;;;;;;;18.99;67.32;68885.59;5085955;28;20044;-78
2022/07/14 08:36:23;;;;;;;9.15;2.13;;;;;;;;;;5092103;28;20036;-78
2022/07/14 08:38:48;;;;;;;10.30;2.03;;;;;;;18.93;65.35;68873.34;5071016;28;20394;-78
2022/07/14 08:41:14;;;;;;;7.15;2.10;;;;;;;18.90;65.63;68867.22;5088837;28;20347;-78
2022/07/14 08:43:40;;;;;;;8.52;2.30;;;;;;;;;;5089777;28;20040;-78
2022/07/14 08:46:05;;;;;;;6.43;2.08;;;;;;;;;;5088542;28;20044;-78
2022/07/14 08:48:32;;;;;;;6.65;2.10;;;;;;;19.08;65.09;68890.47;5090699;28;20052;-78
2022/07/14 08:51:00;;;;;;;5.60;1.60;;;;;;;;;;5075919;28;20036;-78
2022/07/14 08:53:27;;;;;;;10.02;2.10;;;;;;;19.22;64.57;68905.31;5072722;28;20048;-78
2022/07/14 08:55:52;;;;;;;7.10;1.80;;;;;;;;;;5092543;28;20135;-78
2022/07/14 08:58:18;;;;;;;7.97;1.90;;;;;;;;;;5076177;28;20058;-79
2022/07/14 09:00:43;;;;;;;9.27;2.00;;;;;;;19.42;63.46;68933.00;5071415;28;20047;-78
2022/07/14 09:03:09;;;;;;;6.38;1.77;;;;;;;19.32;63.47;68916.75;5089684;28;20048;-79
2022/07/14 09:05:37;;;;;;;8.32;1.70;;;;;;;;;;5090490;28;20040;-79
2022/07/14 09:08:03;;;;;;;10.68;1.70;;;;;;;19.55;62.11;68943.03;5090301;28;20061;-79
2022/07/14 09:10:28;;;;;;;6.90;1.80;;;;;;;19.64;62.75;68957.56;5085234;28;20071;-79
2022/07/14 09:13:14;;;;;;;7.55;1.48;;;;;;;;;;5060426;28;20047;-78
2022/07/14 09:15:46;;;;;;;6.57;1.75;;;;;;;19.95;59.44;68993.03;5085966;28;20072;-78
2022/07/14 09:18:38;;;;;;;4.25;1.50;;;;;;;;;;5088638;28;20036;-77
2022/07/14 09:21:18;;;;;;;6.57;1.63;;;;;;;20.20;59.94;69020.47;5080253;28;20040;-78
2022/07/14 09:23:44;;;;;;;5.55;1.70;;;;;;;20.28;61.08;69021.50;5104160;22;20052;-81
2022/07/14 09:26:21;;;;;;;9.63;2.17;;;;;;;;;;5068932;28;20063;-81
2022/07/14 09:28:49;;;;;;;6.00;1.60;;;;;;;20.23;59.12;69019.06;5073091;28;20048;-81
2022/07/14 09:31:17;;;;;;;7.22;1.60;;;;;;;;;;5054205;28;20127;-79
2022/07/14 09:33:43;;;;;;;6.07;2.08;;;;;;;20.09;60.49;69007.91;5074205;28;20065;-79
2022/07/14 09:36:18;;;;;;;7.18;1.45;;;;;;;;;;5071040;28;20548;-81
2022/07/14 09:38:46;;;;;;;8.30;1.92;;;;;;;20.48;58.43;69052.50;5073208;28;20608;-80
2022/07/14 09:41:12;;;;;;;7.27;1.60;;;;;;;20.37;59.78;69033.91;5072090;28;20567;-82
2022/07/14 09:43:37;;;;;;;6.82;1.40;;;;;;;20.54;59.86;69053.38;5072719;28;20100;-81
2022/07/14 09:46:04;;;;;;;5.40;1.40;;;;;;;20.51;56.88;69049.94;5073755;28;20029;-80
2022/07/14 09:48:29;;;;;;;6.65;1.58;;;;;;;20.78;56.12;69080.28;5072909;28;20037;-81
2022/07/14 09:50:57;;;;;;;3.63;1.30;;;;;;;20.93;55.11;69094.72;5072587;28;20048;-81
2022/07/14 09:53:35;;;;;;;3.80;1.17;;;;;;;20.76;53.63;69077.97;5072427;28;20056;-81
2022/07/14 09:56:05;;;;;;;4.55;1.13;;;;;;;;;;5072698;28;20044;-80
2022/07/14 09:58:39;;;;;;;7.10;1.17;;;;;;;20.54;53.23;69058.22;5071851;28;20558;-81
2022/07/14 10:01:07;;;;;;;4.00;1.00;;;;;;;20.79;53.63;69086.81;5071533;28;20128;-79
2022/07/14 10:03:34;;;;;;;4.20;1.10;;;;;;;20.86;54.14;69094.84;5074095;28;20072;-81
2022/07/14 10:06:01;;;;;;;4.95;1.35;;;;;;;21.11;54.66;69117.44;5071749;28;20286;-81
2022/07/14 10:08:34;;;;;;;6.07;1.17;;;;;;;21.25;52.56;69138.31;5054869;28;20041;-79
2022/07/14 10:11:01;;;;;;;4.03;0.95;;;;;;;21.32;53.50;69146.31;5071944;28;20045;-82
2022/07/14 10:13:27;;;;;;;3.80;0.90;;;;;;;21.11;50.67;69116.88;5072658;28;20115;-79
2022/07/14 10:15:54;;;;;;;4.18;0.93;;;;;;;20.89;49.77;69092.28;5071768;28;20457;-80
2022/07/14 10:18:21;;;;;;;3.42;1.00;;;;;;;21.16;47.94;69123.16;5072523;28;20040;-81
2022/07/14 10:20:50;;;;;;;2.58;0.70;;;;;;;21.22;47.47;69128.88;5070670;28;20039;-80
2022/07/14 10:23:17;;;;;;;4.45;0.80;;;;;;;21.14;48.79;69117.59;5055030;28;20458;-80
2022/07/14 10:25:54;;;;;;;5.38;1.08;;;;;;;21.04;50.29;69108.88;5072344;28;20097;-79
2022/07/14 10:28:20;;;;;;;5.93;1.08;;;;;;;;;;5072820;28;20044;-81
2022/07/14 10:31:11;;;;;;;4.40;1.20;;;;;;;21.17;49.23;69123.72;5072152;28;20123;-80
2022/07/14 10:33:52;;;;;;;3.70;0.90;;;;;;;21.34;50.15;69142.59;5039708;28;20033;-79
2022/07/14 10:36:33;;;;;;;2.83;1.02;;;;;;;21.53;49.98;69161.66;5070387;28;20067;-82
2022/07/14 10:39:17;;;;;;;5.25;1.27;;;;;;;21.49;47.28;69159.22;5070588;28;20043;-80
2022/07/14 10:41:58;;;;;;;3.28;1.08;;;;;;;21.52;47.47;69163.25;5053479;28;20453;-79
2022/07/14 10:44:32;;;;;;;4.43;1.00;;;;;;;21.59;47.93;69170.69;5049375;28;20048;-81
2022/07/14 10:47:08;;;;;;;4.18;1.02;;;;;;;21.81;47.25;69200.72;5069219;28;20047;-81
2022/07/14 10:50:06;;;;;;;4.88;1.33;;;;;;;21.81;48.12;69195.84;5072054;28;20103;-80
2022/07/14 10:52:35;;;;;;;4.50;1.13;;;;;;;21.70;48.96;69183.25;5053485;28;20060;-80
2022/07/14 10:55:14;;;;;;;3.42;1.20;;;;;;;21.74;47.37;69185.13;5070072;28;20082;-81
2022/07/14 10:57:59;;;;;;;4.40;1.00;;;;;;;;;;5050557;28;20037;-79
2022/07/14 11:00:55;;;;;;;3.85;1.13;;;;;;;21.82;47.00;69197.00;5041948;28;20171;-81
2022/07/14 11:03:36;;;;;;;5.63;1.00;;;;;;;21.86;46.34;69201.56;5048951;28;20048;-79
2022/07/14 11:06:11;;;;;;;4.20;1.10;;;;;;;21.74;47.20;69187.25;5030856;28;20059;-79
2022/07/14 11:09:03;;;;;;;4.78;1.23;;;;;;;;;;5039700;28;20178;-83
2022/07/14 11:11:28;;;;;;;3.60;1.05;;;;;;;22.15;47.48;69233.63;5060834;28;20045;-80
2022/07/14 11:14:00;;;;;;;5.72;1.13;;;;;;;22.33;47.39;69253.09;5034347;28;20033;-83
2022/07/14 11:16:43;;;;;;;4.72;1.30;;;;;;;;;;5051791;28;20674;-79
2022/07/14 11:19:31;;;;;;;3.47;1.10;;;;;;;22.55;45.62;69278.31;5051221;28;20100;-80
2022/07/14 11:22:17;;;;;;;3.70;1.17;;;;;;;22.60;45.27;69284.03;5048413;28;20041;-80
2022/07/14 11:25:04;;;;;;;3.65;1.20;;;;;;;22.42;45.25;69264.00;5045442;28;20037;-79
2022/07/14 11:27:43;;;;;;;3.28;1.00;;;;;;;22.27;45.89;69244.69;5051152;28;20478;-81
2022/07/14 11:30:21;;;;;;;4.18;1.30;;;;;;;22.41;46.20;69262.28;5033299;28;20082;-80
2022/07/14 11:32:55;;;;;;;3.72;1.25;;;;;;;;;;5038729;28;20587;-83
2022/07/14 11:38:26;;;;;;;5.15;1.05;;;;;;;23.09;46.24;69333.59;5059434;28;20106;-81
2022/07/14 11:40:53;;;;;;;4.32;0.95;;;;;;;23.14;45.15;69344.75;5066943;28;20668;-79
2022/07/14 11:43:27;;;;;;;3.90;1.17;;;;;;;23.09;46.66;69338.47;5070988;28;20044;-81
2022/07/14 11:46:01;;;;;;;3.78;1.10;;;;;;;23.32;43.60;69358.81;5070409;28;20040;-80
2022/07/14 11:48:54;;;;;;;2.58;0.90;;;;;;;23.03;43.26;69329.44;5017913;28;20040;-81
2022/07/14 11:51:21;;;;;;;3.35;0.93;;;;;;;23.09;43.51;69339.03;5066743;28;20040;-80
2022/07/14 11:54:01;;;;;;;5.63;1.00;;;;;;;23.03;43.73;69331.59;5053552;28;20036;-81
2022/07/14 11:56:28;;;;;;;3.40;0.98;;;;;;;22.81;43.76;69312.94;5048751;28;20507;-81
2022/07/14 11:58:58;;;;;;;4.15;0.93;;;;;;;22.61;44.16;69285.16;5043471;28;20486;-80
2022/07/14 12:01:33;;;;;;;4.50;1.05;;;;;;;22.56;44.54;69278.88;5038077;28;20033;-80
2022/07/14 12:04:14;;;;;;;3.80;1.00;;;;;;;22.42;44.79;69260.72;5052723;28;20114;-79
2022/07/14 12:06:42;;;;;;;3.35;1.00;;;;;;;;;;5045187;28;20128;-79
2022/07/14 12:09:09;;;;;;;3.85;1.10;;;;;;;22.40;45.18;69261.13;5045798;28;20648;-79
2022/07/14 12:11:34;;;;;;;3.38;0.82;;;;;;;22.42;44.25;69260.72;5055289;28;20413;-80
2022/07/14 12:13:59;;;;;;;3.25;1.00;;;;;;;22.37;45.56;69263.69;5049450;28;20041;-80
2022/07/14 12:16:25;;;;;;;3.30;1.02;;;;;;;22.42;44.72;69260.72;5050523;28;20409;-79